Time;durP1;ratioP1;P1;durP2;ratioP2;P2;SDS_P1;SDS_P2;PMS_P1;PMS_P2;Temp;Humidity;BMP_temperature;BMP_pressure;BME280_temperature;BME280_humidity;BME280_pressure;Samples;Min_cycle;Max_cycle;Signal;HPM_P1;HPM_P2
2024/01/19 00:00:33;;;;;;;21.93;6.23;;;11.30;99.90;;;11.30;68.22;93895.03;5072398;28;20498;-60
2024/01/19 00:03:03;;;;;;;15.37;4.60;;;11.20;99.90;;;11.29;68.04;93894.22;5075664;28;20461;-65
2024/01/19 00:05:31;;;;;;;5.37;3.40;;;11.20;99.90;;;11.26;67.78;93899.00;5073723;28;20463;-61
2024/01/19 00:07:58;;;;;;;7.03;3.10;;;11.20;99.90;;;11.21;68.31;93902.13;5072202;28;20451;-65
2024/01/19 00:10:27;;;;;;;9.13;2.93;;;11.20;99.90;;;11.17;68.74;93900.00;5072232;28;20481;-65
2024/01/19 00:12:54;;;;;;;6.50;3.03;;;11.20;99.90;;;11.14;68.83;93901.16;5072461;28;20819;-65
2024/01/19 00:15:22;;;;;;;4.27;3.13;;;11.10;99.90;;;11.12;68.77;93903.97;5068714;28;20539;-61
2024/01/19 00:17:49;;;;;;;5.63;4.07;;;11.10;99.90;;;11.12;69.24;93900.50;5072178;28;20487;-61
2024/01/19 00:20:17;;;;;;;4.27;3.50;;;11.10;99.90;;;11.09;69.55;93919.25;5068511;28;20498;-65
2024/01/19 00:22:44;;;;;;;5.70;4.17;;;11.00;99.90;;;11.03;69.57;93912.88;5072593;28;20836;-62
2024/01/19 00:25:11;;;;;;;7.27;4.37;;;11.00;99.90;;;11.00;69.63;93910.56;5070929;28;20478;-62
2024/01/19 00:27:40;;;;;;;5.87;3.80;;;11.00;99.90;;;10.97;69.61;93918.78;5069904;28;20462;-64
2024/01/19 00:30:08;;;;;;;4.93;3.03;;;11.00;99.90;;;10.96;69.32;93922.41;5067772;28;20481;-64
2024/01/19 00:32:36;;;;;;;5.43;3.50;;;10.90;99.90;;;10.91;69.70;93919.44;5064142;28;20444;-65
2024/01/19 00:35:04;;;;;;;5.93;4.00;;;10.90;99.90;;;10.87;70.00;93915.50;5072242;28;20446;-60
2024/01/19 00:37:31;;;;;;;4.10;2.73;;;10.80;99.90;;;10.84;69.95;93916.63;5066477;28;20443;-65
2024/01/19 00:39:58;;;;;;;4.63;3.60;;;10.80;99.90;;;10.81;69.59;93926.69;5069948;28;20979;-64
2024/01/19 00:42:25;;;;;;;4.60;3.40;;;10.80;99.90;;;10.77;70.07;93929.63;5067190;28;20447;-61
2024/01/19 00:44:54;;;;;;;7.90;3.93;;;10.80;99.90;;;10.72;70.50;93931.94;5072418;28;20447;-61
2024/01/19 00:47:21;;;;;;;6.43;3.57;;;10.70;99.90;;;10.69;70.08;93920.91;5071259;28;20450;-60
2024/01/19 00:49:49;;;;;;;4.20;3.77;;;10.70;99.90;;;10.65;70.73;93930.94;5070218;28;20509;-61
2024/01/19 00:52:16;;;;;;;5.03;4.00;;;10.60;99.90;;;10.64;70.82;93926.66;5070234;28;20551;-65
2024/01/19 00:54:44;;;;;;;7.97;4.87;;;10.70;99.90;;;10.65;70.70;93933.56;5066485;28;20474;-61
2024/01/19 00:57:11;;;;;;;6.67;4.97;;;10.70;99.90;;;10.65;70.56;93933.56;5070484;28;20443;-61
2024/01/19 00:59:39;;;;;;;9.73;5.77;;;10.60;99.90;;;10.64;71.30;93920.59;5067363;28;20486;-64
2024/01/19 01:02:07;;;;;;;12.93;5.57;;;10.60;99.90;;;10.65;70.87;93933.56;5071452;28;20482;-62
2024/01/19 01:04:35;;;;;;;7.03;5.30;;;10.60;99.90;;;10.62;71.49;93918.13;5070624;28;20447;-61
2024/01/19 01:07:02;;;;;;;9.53;5.33;;;10.60;99.90;;;10.61;71.38;93920.91;5069417;28;20470;-61
2024/01/19 01:09:30;;;;;;;13.97;6.20;;;10.60;99.90;;;10.58;71.88;93914.16;5071832;28;20458;-64
2024/01/19 01:11:57;;;;;;;6.47;5.10;;;10.60;99.90;;;10.55;71.80;93931.09;5070753;28;20512;-62
2024/01/19 01:14:24;;;;;;;5.23;4.73;;;10.60;99.90;;;10.53;72.67;93925.19;5071680;28;20447;-65
2024/01/19 01:16:52;;;;;;;6.63;5.27;;;10.60;99.90;;;10.54;72.92;93941.78;5070940;28;20478;-64
2024/01/19 01:19:20;;;;;;;5.70;4.50;;;10.50;99.90;;;10.53;72.32;93938.34;5071360;28;20579;-61
2024/01/19 01:21:48;;;;;;;11.73;6.40;;;10.50;99.90;;;10.54;72.47;93944.41;5067809;28;20464;-61
2024/01/19 01:24:15;;;;;;;10.43;5.90;;;10.50;99.90;;;10.56;72.20;93942.44;5071594;28;20955;-64
2024/01/19 01:26:42;;;;;;;7.90;5.70;;;10.50;99.90;;;10.58;72.17;93937.81;5068204;28;20812;-65
2024/01/19 01:29:10;;;;;;;8.23;5.80;;;10.50;99.90;;;10.57;72.43;93938.84;5068895;28;20478;-61
2024/01/19 01:31:37;;;;;;;8.23;6.63;;;10.50;99.90;;;10.56;72.51;93940.63;5071281;28;20521;-64
2024/01/19 01:34:05;;;;;;;11.00;6.43;;;10.60;99.90;;;10.56;72.46;93935.38;5070251;28;20451;-61
2024/01/19 01:36:33;;;;;;;9.53;6.20;;;10.50;99.90;;;10.56;72.89;93945.06;5064431;28;20468;-64
2024/01/19 01:39:01;;;;;;;6.53;5.57;;;10.60;99.90;;;10.56;72.72;93935.38;5069695;28;20602;-65
2024/01/19 01:41:28;;;;;;;11.40;6.70;;;10.50;99.90;;;10.56;72.94;93924.84;5064291;28;20471;-64
2024/01/19 01:43:55;;;;;;;5.67;5.10;;;10.50;99.90;;;10.55;72.83;93932.91;5070967;28;20447;-64
2024/01/19 01:46:22;;;;;;;8.67;6.00;;;10.50;99.90;;;10.55;72.84;93938.16;5066397;28;20467;-61
2024/01/19 01:48:50;;;;;;;8.70;5.87;;;10.50;99.90;;;10.56;72.82;93934.56;5067036;28;20479;-62
2024/01/19 01:51:17;;;;;;;6.77;5.50;;;10.50;99.90;;;10.55;72.69;93932.91;5071077;28;20466;-63
2024/01/19 01:53:46;;;;;;;7.00;5.10;;;10.50;99.90;;;10.56;72.72;93938.00;5071127;28;20469;-60
2024/01/19 01:56:13;;;;;;;11.53;5.40;;;10.50;99.90;;;10.56;73.13;93935.38;5065662;28;20470;-65
2024/01/19 01:58:40;;;;;;;11.77;5.70;;;10.50;99.90;;;10.56;72.97;93935.38;5070228;28;20493;-63
2024/01/19 02:01:08;;;;;;;5.57;5.00;;;10.60;99.90;;;10.55;72.82;93940.78;5067489;28;20470;-65
2024/01/19 02:03:35;;;;;;;7.50;5.00;;;10.50;99.90;;;10.55;72.72;93938.16;5070338;28;20447;-62
2024/01/19 02:06:02;;;;;;;8.27;5.60;;;10.50;99.90;;;10.53;73.01;93938.34;5066028;28;20543;-60
2024/01/19 02:08:30;;;;;;;15.87;5.27;;;10.50;99.90;;;10.53;72.87;93933.09;5070531;28;20448;-65
2024/01/19 02:10:58;;;;;;;8.80;4.47;;;10.50;99.90;;;10.53;72.70;93938.34;5067227;28;20472;-61
2024/01/19 02:13:26;;;;;;;6.03;4.60;;;10.50;99.90;;;10.54;72.83;93942.59;5070360;28;20443;-64
2024/01/19 02:15:55;;;;;;;5.00;4.40;;;10.50;99.90;;;10.55;72.54;93943.41;5069727;28;20921;-60
2024/01/19 02:18:22;;;;;;;8.10;4.90;;;10.50;99.90;;;10.53;72.64;93934.88;5066875;28;21037;-61
2024/01/19 02:20:49;;;;;;;7.10;4.57;;;10.50;99.90;;;10.53;72.87;93940.97;5067401;28;20585;-65
2024/01/19 02:23:17;;;;;;;4.20;3.40;;;10.50;99.90;;;10.51;72.75;93940.28;5066111;28;20473;-64
2024/01/19 02:25:45;;;;;;;3.60;2.80;;;10.50;99.90;;;10.51;72.44;93942.94;5070046;28;20998;-64
2024/01/19 02:28:13;;;;;;;3.27;2.97;;;10.50;99.90;;;10.53;72.17;93940.13;5069978;28;20455;-61
2024/01/19 02:30:41;;;;;;;3.20;2.90;;;10.50;99.90;;;10.53;72.28;93946.22;5065851;28;21331;-62
2024/01/19 02:33:09;;;;;;;9.17;5.47;;;10.50;99.90;;;10.52;72.15;93949.84;5065669;28;20530;-64
2024/01/19 02:35:36;;;;;;;12.33;6.97;;;10.50;99.90;;;10.49;72.64;93949.34;5069930;28;20493;-61
2024/01/19 02:38:04;;;;;;;9.83;6.93;;;10.50;99.90;;;10.40;72.34;93957.19;5068694;28;20444;-61
2024/01/19 02:40:31;;;;;;;11.07;7.17;;;10.40;99.90;;;10.34;72.81;93962.28;5069597;28;20471;-61
2024/01/19 02:43:00;;;;;;;9.93;6.30;;;10.30;99.90;;;10.26;73.01;93964.88;5065784;28;20455;-64
2024/01/19 02:45:27;;;;;;;15.57;6.27;;;10.30;99.90;;;10.19;73.09;93973.41;5065401;28;20466;-62
2024/01/19 02:47:55;;;;;;;8.70;6.73;;;10.20;99.90;;;10.16;72.85;93965.84;5064810;28;20447;-62
2024/01/19 02:50:22;;;;;;;6.23;5.63;;;10.20;99.90;;;10.13;72.91;93987.19;5065841;28;20463;-61
2024/01/19 02:52:49;;;;;;;8.37;6.30;;;10.10;99.90;;;10.11;72.99;93978.59;5066179;28;20462;-61
2024/01/19 02:55:17;;;;;;;11.17;7.17;;;10.10;99.90;;;10.10;72.81;93970.88;5065258;28;20466;-60
2024/01/19 02:57:44;;;;;;;9.57;6.87;;;10.10;99.90;;;10.07;72.67;93972.03;5069499;28;20443;-64
2024/01/19 03:00:14;;;;;;;8.57;6.47;;;10.10;99.90;;;10.05;72.68;93977.47;5069687;28;20851;-61
2024/01/19 03:02:41;;;;;;;10.63;6.30;;;10.10;99.90;;;10.03;72.98;93973.34;5069721;28;20450;-65
2024/01/19 03:05:09;;;;;;;7.90;7.10;;;10.00;99.90;;;9.98;73.33;93976.44;5065435;28;20471;-62
2024/01/19 03:07:36;;;;;;;8.37;7.23;;;10.00;99.90;;;9.92;73.02;93973.63;5065658;28;20443;-62
2024/01/19 03:10:04;;;;;;;7.50;5.60;;;9.90;99.90;;;9.90;73.05;93981.66;5064930;28;20505;-59
2024/01/19 03:12:32;;;;;;;6.67;4.50;;;9.90;99.90;;;9.90;73.10;93973.78;5065349;28;20454;-61
2024/01/19 03:14:59;;;;;;;6.50;5.90;;;9.90;99.90;;;9.88;72.87;93970.47;5065022;28;20447;-60
2024/01/19 03:17:28;;;;;;;6.47;5.37;;;9.90;99.90;;;9.85;73.04;93973.41;5069246;28;20497;-61
2024/01/19 03:19:55;;;;;;;8.97;5.73;;;9.90;99.90;;;9.83;73.00;93964.88;5063260;28;20482;-63
2024/01/19 03:22:22;;;;;;;10.17;6.43;;;9.80;99.90;;;9.81;73.09;93974.72;5065015;28;20448;-61
2024/01/19 03:24:50;;;;;;;7.67;5.87;;;9.80;99.90;;;9.77;72.95;93982.06;5066284;28;20443;-61
2024/01/19 03:27:17;;;;;;;9.90;6.40;;;9.80;99.90;;;9.73;73.19;93980.75;5069177;28;20447;-64
2024/01/19 03:29:44;;;;;;;7.77;5.90;;;9.80;99.90;;;9.70;73.41;93986.31;5065217;28;20450;-64
2024/01/19 03:32:12;;;;;;;6.77;5.10;;;9.70;99.90;;;9.69;73.64;93984.66;5061354;28;20451;-59
2024/01/19 03:34:41;;;;;;;10.93;6.40;;;9.70;99.90;;;9.67;73.82;93976.94;5063299;28;20447;-62
2024/01/19 03:37:08;;;;;;;7.83;5.90;;;9.70;99.90;;;9.65;73.46;93986.78;5069976;28;20462;-61
2024/01/19 03:39:36;;;;;;;8.47;5.60;;;9.70;99.90;;;9.65;73.43;93984.16;5073692;28;20478;-62
2024/01/19 03:42:03;;;;;;;5.63;4.07;;;9.70;99.90;;;9.63;73.32;93986.09;5064004;28;20475;-60
2024/01/19 03:44:30;;;;;;;4.90;4.43;;;9.70;99.90;;;9.61;73.12;93982.00;5069784;28;20454;-63
2024/01/19 03:46:59;;;;;;;6.60;4.67;;;9.60;99.90;;;9.59;73.19;93982.16;5067602;28;20886;-64
2024/01/19 03:49:26;;;;;;;6.53;4.00;;;9.60;99.90;;;9.57;73.18;93981.47;5068989;28;20447;-61
2024/01/19 03:52:00;;;;;;;4.77;3.30;;;9.60;99.90;;;9.55;73.04;93983.44;5069838;28;20607;-65
2024/01/19 03:54:27;;;;;;;4.17;3.40;;;9.50;99.90;;;9.56;73.02;93989.50;5065941;28;20767;-65
2024/01/19 03:56:55;;;;;;;11.50;3.53;;;9.60;99.90;;;9.54;73.06;93992.28;5072798;28;20536;-64
2024/01/19 03:59:22;;;;;;;3.07;2.87;;;9.60;99.90;;;9.58;73.21;93988.38;5072725;28;20513;-60
2024/01/19 04:01:49;;;;;;;6.93;3.50;;;9.60;99.90;;;9.60;73.20;93990.84;5068617;28;20466;-65
2024/01/19 04:04:17;;;;;;;5.57;3.80;;;9.60;99.90;;;9.62;73.12;93989.72;5068572;28;20558;-61
2024/01/19 04:06:44;;;;;;;2.90;2.60;;;9.60;99.90;;;9.66;72.98;93991.03;5068785;28;20468;-61
2024/01/19 04:09:15;;;;;;;4.53;2.97;;;9.60;99.90;;;9.68;73.25;93997.00;5070507;28;20457;-62
2024/01/19 04:11:43;;;;;;;6.53;3.17;;;9.70;99.90;;;9.71;72.99;93987.94;5072125;28;20470;-62
2024/01/19 04:14:10;;;;;;;3.93;2.73;;;9.70;99.90;;;9.74;72.84;93998.16;5068483;28;20940;-61
2024/01/19 04:16:38;;;;;;;4.30;2.43;;;9.70;99.90;;;9.78;72.80;94001.31;5072421;28;20959;-61
2024/01/19 04:19:05;;;;;;;2.37;2.10;;;9.80;99.90;;;9.81;72.62;93998.38;5068051;28;20493;-62
2024/01/19 04:21:32;;;;;;;3.10;2.73;;;9.80;99.90;;;9.83;72.50;93991.94;5072466;28;21025;-62
2024/01/19 04:24:00;;;;;;;2.73;2.33;;;9.80;99.90;;;9.82;72.45;94000.84;5065512;28;20940;-64
2024/01/19 04:26:29;;;;;;;8.60;3.80;;;9.80;99.90;;;9.83;72.35;93993.75;5072653;28;20892;-61
2024/01/19 04:28:56;;;;;;;6.20;2.87;;;9.80;99.90;;;9.82;72.60;94000.84;5063808;28;20884;-64
2024/01/19 04:31:24;;;;;;;3.13;2.90;;;9.80;99.90;;;9.82;72.83;94010.50;5067109;28;20480;-61
2024/01/19 04:33:51;;;;;;;3.43;3.13;;;9.80;99.90;;;9.82;72.39;94021.00;5068259;28;20455;-60
2024/01/19 04:36:19;;;;;;;4.50;3.80;;;9.80;99.90;;;9.81;72.60;94014.13;5065395;28;20474;-60
2024/01/19 04:38:49;;;;;;;4.13;3.17;;;9.80;99.90;;;9.81;72.56;94008.88;5071564;28;20457;-61
2024/01/19 04:41:16;;;;;;;10.13;4.00;;;9.80;99.90;;;9.81;72.39;94011.50;5067846;28;20462;-61
2024/01/19 04:43:45;;;;;;;6.73;3.07;;;9.80;99.90;;;9.82;72.66;94007.88;5068138;28;20451;-62
2024/01/19 04:46:12;;;;;;;11.77;3.50;;;9.80;99.90;;;9.81;72.38;94003.63;5063241;28;20464;-64
2024/01/19 04:48:39;;;;;;;5.17;3.30;;;9.80;99.90;;;9.80;72.45;94012.47;5071548;28;20458;-62
2024/01/19 04:51:07;;;;;;;12.00;3.83;;;9.80;99.90;;;9.78;72.50;94009.19;5064283;28;20467;-61
2024/01/19 04:53:34;;;;;;;3.67;3.37;;;9.80;99.90;;;9.76;72.23;94013.75;5067916;28;20443;-60
2024/01/19 04:56:05;;;;;;;7.03;3.60;;;9.80;99.90;;;9.73;72.52;94012.28;5062857;28;21037;-64
2024/01/19 04:58:34;;;;;;;5.33;2.87;;;9.70;99.90;;;9.72;72.29;94018.50;5066312;28;20467;-59
2024/01/19 05:01:03;;;;;;;5.67;3.10;;;9.70;99.90;;;9.69;72.18;94006.50;5067977;28;20494;-61
2024/01/19 05:03:30;;;;;;;5.83;2.90;;;9.70;99.90;;;9.69;72.21;94009.13;5069808;28;20606;-61
2024/01/19 05:05:58;;;;;;;4.70;3.10;;;9.70;99.90;;;9.68;72.25;94004.88;5071154;28;20529;-60
2024/01/19 05:08:25;;;;;;;6.77;3.10;;;9.70;99.90;;;9.71;72.44;94014.22;5071951;28;20450;-64
2024/01/19 05:10:52;;;;;;;4.47;2.57;;;9.70;99.90;;;9.71;72.34;94016.03;5071712;28;20474;-65
2024/01/19 05:13:19;;;;;;;4.00;2.53;;;9.70;99.90;;;9.71;71.78;94018.66;5071579;28;20454;-65
2024/01/19 05:15:47;;;;;;;6.60;3.10;;;9.70;99.90;;;9.71;72.09;94023.91;5071646;28;20470;-62
2024/01/19 05:18:15;;;;;;;10.70;4.00;;;9.70;99.90;;;9.69;72.08;94022.25;5071222;28;20443;-60
2024/01/19 05:20:43;;;;;;;4.90;2.80;;;9.70;99.90;;;9.70;72.09;94015.22;5071069;28;20487;-65
2024/01/19 05:23:10;;;;;;;3.57;3.27;;;9.70;99.90;;;9.69;72.02;94027.50;5071825;28;20455;-66
2024/01/19 05:25:38;;;;;;;9.53;3.60;;;9.70;99.90;;;9.68;71.88;94036.38;5068384;28;20482;-64
2024/01/19 05:28:05;;;;;;;5.50;3.80;;;9.70;99.90;;;9.68;71.83;94031.13;5069083;28;20451;-64
2024/01/19 05:30:33;;;;;;;6.80;4.13;;;9.70;99.90;;;9.67;71.63;94029.47;5065968;28;20514;-61
2024/01/19 05:33:00;;;;;;;5.07;3.70;;;9.70;99.90;;;9.64;71.89;94029.78;5063394;28;20444;-61
2024/01/19 05:35:29;;;;;;;11.43;5.00;;;9.70;99.90;;;9.59;71.78;94024.16;5064940;28;20500;-60
2024/01/19 05:37:57;;;;;;;12.53;3.60;;;9.60;99.90;;;9.57;71.74;94026.09;5071188;28;20435;-61
2024/01/19 05:40:24;;;;;;;5.13;3.80;;;9.60;99.90;;;9.53;71.88;94019.53;5067000;28;21196;-63
2024/01/19 05:42:51;;;;;;;6.97;4.50;;;9.60;99.90;;;9.52;71.92;94033.63;5065916;28;20456;-62
2024/01/19 05:45:19;;;;;;;12.23;4.60;;;9.50;99.90;;;9.50;71.73;94028.53;5070549;28;20479;-64
2024/01/19 05:47:46;;;;;;;6.63;4.90;;;9.50;99.90;;;9.49;72.04;94032.13;5063709;28;20487;-63
2024/01/19 05:50:13;;;;;;;5.60;3.50;;;9.50;99.90;;;9.49;72.14;94041.81;5066455;28;20818;-61
2024/01/19 05:52:42;;;;;;;7.27;3.80;;;9.50;99.90;;;9.48;72.10;94034.91;5065819;28;20451;-60
2024/01/19 05:55:10;;;;;;;4.60;3.90;;;9.50;99.90;;;9.48;72.27;94037.53;5069984;28;20463;-64
2024/01/19 05:57:37;;;;;;;9.87;4.27;;;9.50;99.90;;;9.48;72.29;94040.16;5069466;28;20473;-64
2024/01/19 06:00:06;;;;;;;7.83;3.73;;;9.50;99.90;;;9.47;72.35;94031.47;5068710;28;20478;-64
2024/01/19 06:02:33;;;;;;;10.03;4.07;;;9.50;99.90;;;9.46;72.70;94042.13;5065992;28;20526;-61
2024/01/19 06:05:01;;;;;;;8.63;4.27;;;9.50;99.90;;;9.45;72.53;94050.97;5064734;28;20450;-61
2024/01/19 06:07:30;;;;;;;9.00;5.47;;;9.50;99.90;;;9.43;72.48;94053.75;5067714;28;20447;-62
2024/01/19 06:09:59;;;;;;;13.73;6.03;;;9.40;99.90;;;9.40;72.58;94056.66;5068572;28;20443;-60
2024/01/19 06:12:26;;;;;;;25.43;8.77;;;9.40;99.90;;;9.37;72.71;94049.09;5068589;28;20509;-62
2024/01/19 06:14:54;;;;;;;13.27;8.47;;;9.40;99.90;;;9.36;72.72;94057.13;5068308;28;20827;-60
2024/01/19 06:17:21;;;;;;;15.87;10.97;;;9.40;99.90;;;9.38;72.38;94055.19;5068660;28;20474;-60
2024/01/19 06:19:48;;;;;;;29.63;14.23;;;9.40;99.90;;;9.36;72.19;94057.13;5069250;28;20540;-65
2024/01/19 06:22:15;;;;;;;29.27;17.73;;;9.30;99.90;;;9.31;72.57;94057.59;5061545;28;20458;-64
2024/01/19 06:24:43;;;;;;;30.47;18.43;;;9.30;99.90;;;9.24;72.53;94057.38;5070585;28;20458;-64
2024/01/19 06:27:13;;;;;;;33.03;18.00;;;9.30;99.90;;;9.20;73.05;94074.41;5070073;28;20498;-61
2024/01/19 06:29:41;;;;;;;30.60;18.70;;;9.20;99.90;;;9.14;72.89;94075.03;5068829;28;20455;-65
2024/01/19 06:32:08;;;;;;;29.00;18.83;;;9.20;99.90;;;9.12;73.15;94090.91;5068406;28;20562;-61
2024/01/19 06:34:38;;;;;;;29.20;17.47;;;9.20;99.90;;;9.10;73.66;94086.78;5069851;28;20542;-65
2024/01/19 06:37:06;;;;;;;27.47;16.70;;;9.10;99.90;;;9.08;73.76;94078.25;5070323;28;20725;-61
2024/01/19 06:39:33;;;;;;;25.50;17.00;;;9.10;99.90;;;9.07;74.19;94092.31;5069842;28;20447;-61
2024/01/19 06:42:00;;;;;;;26.47;15.70;;;9.10;99.90;;;9.07;73.62;94098.38;5069815;28;20490;-61
2024/01/19 06:44:29;;;;;;;30.50;16.67;;;9.10;99.90;;;9.08;73.86;94102.66;5070027;28;20455;-64
2024/01/19 06:46:56;;;;;;;28.77;16.80;;;9.10;99.90;;;9.10;74.08;94113.81;5070054;28;20478;-64
2024/01/19 06:49:24;;;;;;;26.60;14.50;;;9.10;99.90;;;9.12;74.03;94109.28;5069701;28;20455;-62
2024/01/19 06:51:51;;;;;;;21.93;14.20;;;9.10;99.90;;;9.13;74.11;94104.84;5069573;28;20547;-64
2024/01/19 06:54:18;;;;;;;22.00;14.50;;;9.10;99.90;;;9.13;73.96;94103.03;5070985;28;20517;-64
2024/01/19 06:56:46;;;;;;;19.50;12.77;;;9.20;99.90;;;9.16;74.18;94099.28;5070170;28;20467;-61
2024/01/19 06:59:13;;;;;;;25.37;14.13;;;9.20;99.90;;;9.21;74.36;94118.03;5069471;28;20447;-60
2024/01/19 07:01:42;;;;;;;22.73;14.10;;;9.20;99.90;;;9.25;73.90;94119.38;5068426;28;20490;-61
2024/01/19 07:04:09;;;;;;;22.23;12.97;;;9.30;99.90;;;9.33;74.12;94114.19;5069541;28;20447;-61
2024/01/19 07:06:36;;;;;;;21.23;12.50;;;9.30;99.90;;;9.45;73.74;94119.19;5069342;28;20467;-64
2024/01/19 07:09:04;;;;;;;20.13;12.93;;;9.40;99.90;;;9.58;73.92;94119.66;5069199;28;20451;-61
2024/01/19 07:11:31;;;;;;;16.30;11.90;;;9.60;99.90;;;9.77;73.63;94112.56;5069453;28;21007;-61
2024/01/19 07:13:58;;;;;;;16.13;10.77;;;9.70;99.90;;;9.91;72.81;94114.63;5069707;28;20447;-62
2024/01/19 07:16:26;;;;;;;17.93;10.83;;;9.90;99.90;;;10.01;72.58;94123.22;5069878;28;20486;-64
2024/01/19 07:18:54;;;;;;;17.73;10.33;;;10.00;99.90;;;10.10;72.01;94116.22;5069369;28;20455;-65
2024/01/19 07:21:22;;;;;;;10.20;9.20;;;10.10;99.90;;;10.16;72.37;94123.50;5068920;28;20498;-61
2024/01/19 07:23:49;;;;;;;11.83;8.90;;;10.20;99.90;;;10.25;72.23;94113.84;5069860;28;20541;-65
2024/01/19 07:26:19;;;;;;;15.20;10.53;;;10.20;99.90;;;10.38;71.43;94109.00;5069981;28;20467;-62
2024/01/19 07:28:47;;;;;;;17.17;10.97;;;10.40;99.90;;;10.68;71.83;94111.25;5069432;28;20546;-61
2024/01/19 07:31:14;;;;;;;11.57;8.53;;;10.70;99.90;;;11.16;71.44;94112.38;5069557;28;20510;-64
2024/01/19 07:33:42;;;;;;;14.37;9.27;;;11.10;99.90;;;11.63;69.56;94116.19;5067899;28;20459;-63
2024/01/19 07:36:15;;;;;;;15.37;9.80;;;11.60;99.90;;;11.93;68.89;94127.06;5069089;28;20486;-61
2024/01/19 07:38:42;;;;;;;18.27;9.80;;;11.90;99.90;;;12.08;67.83;94117.47;5068810;28;20443;-62
2024/01/19 07:41:09;;;;;;;15.30;10.63;;;12.10;99.90;;;12.12;67.55;94128.53;5068740;28;21082;-61
2024/01/19 07:43:37;;;;;;;12.70;9.60;;;12.10;99.90;;;12.09;67.55;94121.78;5068712;28;21008;-62
2024/01/19 07:46:04;;;;;;;17.77;10.67;;;12.10;99.90;;;12.06;67.72;94137.09;5068707;28;20478;-64
2024/01/19 07:48:31;;;;;;;17.37;9.90;;;12.00;99.90;;;11.99;67.56;94132.50;5068942;28;20963;-62
2024/01/19 07:50:59;;;;;;;15.00;9.17;;;12.00;99.90;;;11.94;67.55;94133.97;5071133;28;20500;-62
2024/01/19 07:53:28;;;;;;;15.77;9.17;;;12.00;99.90;;;11.91;67.82;94121.09;5068666;28;20454;-62
2024/01/19 07:55:55;;;;;;;13.23;9.10;;;11.90;99.90;;;11.88;67.19;94118.81;5068983;28;20475;-63
2024/01/19 07:58:22;;;;;;;17.03;8.93;;;11.90;99.90;;;11.87;67.80;94128.53;5068882;28;20478;-61
2024/01/19 08:00:50;;;;;;;11.20;8.97;;;11.80;99.90;;;11.86;67.74;94124.25;5068790;28;20491;-62
2024/01/19 08:03:17;;;;;;;12.90;8.43;;;11.80;99.90;;;11.87;67.66;94131.16;5068451;28;21117;-65
2024/01/19 08:05:44;;;;;;;31.47;15.67;;;11.80;99.90;;;11.88;67.73;94124.06;5069097;28;20910;-62
2024/01/19 08:08:12;;;;;;;200.80;96.93;;;11.80;99.90;;;11.90;67.67;94124.72;5069004;28;20450;-62
2024/01/19 08:10:41;;;;;;;52.23;28.47;;;11.90;99.90;;;11.93;67.93;94125.25;5068666;28;20473;-64
2024/01/19 08:13:08;;;;;;;41.23;25.27;;;11.90;99.90;;;11.97;68.14;94121.28;5068682;28;20483;-64
2024/01/19 08:15:35;;;;;;;29.10;19.73;;;11.90;99.90;;;12.03;67.78;94135.63;5068617;28;20475;-65
2024/01/19 08:18:04;;;;;;;37.20;21.50;;;11.90;99.90;;;12.07;67.81;94139.56;5068549;28;20908;-64
2024/01/19 08:20:32;;;;;;;33.10;20.53;;;12.00;99.90;;;12.13;67.56;94144.19;5069437;28;20490;-62
2024/01/19 08:23:00;;;;;;;26.67;17.60;;;12.10;99.90;;;12.21;67.46;94140.72;5072017;28;20451;-61
2024/01/19 08:25:28;;;;;;;29.17;18.87;;;12.20;99.90;;;12.32;67.36;94142.16;5072412;28;20462;-64
2024/01/19 08:27:57;;;;;;;25.00;15.77;;;12.20;99.90;;;12.39;67.18;94158.94;5072168;28;20451;-61
2024/01/19 08:30:24;;;;;;;29.47;17.90;;;12.30;99.90;;;12.46;67.05;94146.75;5072028;28;20474;-64
2024/01/19 08:32:51;;;;;;;32.53;18.17;;;12.40;99.90;;;12.60;66.37;94147.03;5071353;28;20858;-64
2024/01/19 08:35:18;;;;;;;35.37;18.90;;;12.50;99.90;;;12.94;66.59;94146.72;5071808;28;20475;-62
2024/01/19 08:37:46;;;;;;;30.47;14.20;;;12.80;99.90;;;13.37;66.04;94143.72;5072076;28;20462;-65
2024/01/19 08:40:13;;;;;;;14.63;10.80;;;13.20;99.90;;;14.21;65.07;94154.28;5071855;28;20565;-62
2024/01/19 08:42:41;;;;;;;15.90;11.60;;;13.90;99.90;;;15.12;60.63;94140.06;5071832;28;20451;-62
2024/01/19 08:45:10;;;;;;;15.37;10.67;;;14.70;99.90;;;15.90;60.50;94142.97;5071688;28;20471;-62
2024/01/19 08:47:37;;;;;;;16.10;11.67;;;15.40;99.90;;;16.54;59.99;94143.84;5071818;28;20505;-62
2024/01/19 08:50:06;;;;;;;18.10;13.97;;;16.00;99.90;;;17.21;58.35;94150.34;5071977;28;20486;-61
2024/01/19 08:52:33;;;;;;;13.00;9.73;;;16.70;99.90;;;17.79;57.24;94152.56;5073458;28;20463;-63
2024/01/19 08:55:01;;;;;;;17.47;9.43;;;17.30;99.20;;;18.33;55.40;94153.44;5071988;28;20491;-63
2024/01/19 08:57:28;;;;;;;13.50;10.27;;;17.90;97.80;;;18.67;54.94;94142.75;5073046;28;20551;-64
2024/01/19 08:59:55;;;;;;;14.23;9.37;;;18.20;96.60;;;18.75;54.14;94150.53;5072821;28;20442;-65
2024/01/19 09:02:24;;;;;;;10.00;7.83;;;18.40;95.70;;;18.66;53.99;94144.59;5071772;28;20486;-61
2024/01/19 09:04:51;;;;;;;13.60;8.80;;;18.50;95.00;;;18.62;53.55;94146.88;5073835;28;20521;-63
2024/01/19 09:07:19;;;;;;;13.13;7.97;;;18.50;94.70;;;18.94;53.54;94135.56;5071974;28;20474;-65
2024/01/19 09:09:47;;;;;;;12.53;7.83;;;18.70;94.60;;;19.29;53.04;94137.91;5072063;28;20473;-63
2024/01/19 09:12:14;;;;;;;10.50;6.40;;;18.90;94.30;;;19.32;52.05;94140.16;5071825;28;20462;-62
2024/01/19 09:14:41;;;;;;;9.20;6.50;;;19.00;93.40;;;19.23;52.07;94141.41;5071975;28;20454;-65
2024/01/19 09:17:09;;;;;;;7.60;5.93;;;19.00;92.90;;;19.16;52.43;94136.94;5072061;28;20828;-65
2024/01/19 09:19:37;;;;;;;12.57;6.57;;;19.00;92.80;;;19.11;52.23;94125.25;5072036;28;20457;-62
2024/01/19 09:22:05;;;;;;;13.23;7.13;;;18.90;92.90;;;18.98;52.37;94121.59;5071574;28;21007;-62
2024/01/19 09:24:32;;;;;;;15.60;8.40;;;18.80;92.20;;;18.78;52.35;94128.81;5071629;28;20455;-64
2024/01/19 09:27:00;;;;;;;10.40;6.70;;;18.70;92.00;;;18.57;52.65;94114.69;5071165;28;20935;-62
2024/01/19 09:29:27;;;;;;;12.10;7.70;;;18.50;92.40;;;18.57;53.03;94116.56;5071454;28;20447;-65
2024/01/19 09:31:54;;;;;;;9.23;6.50;;;18.50;92.60;;;18.80;52.73;94105.44;5069515;28;20475;-64
2024/01/19 09:34:22;;;;;;;13.23;8.50;;;18.60;92.70;;;19.29;52.42;94104.06;5070862;28;20451;-64
2024/01/19 09:36:51;;;;;;;24.17;9.47;;;19.00;92.90;;;19.78;51.44;94111.59;5071557;28;20478;-63
2024/01/19 09:39:20;;;;;;;11.60;8.70;;;19.30;92.40;;;20.15;50.71;94101.88;5071089;28;20451;-62
2024/01/19 09:41:48;;;;;;;12.03;8.30;;;19.70;91.50;;;20.63;50.48;94102.28;5071413;28;20526;-63
2024/01/19 09:44:18;;;;;;;12.70;9.07;;;20.20;91.10;;;21.08;48.48;94094.78;5071046;28;20453;-64
2024/01/19 09:47:04;;;;;;;17.83;10.70;;;20.50;89.30;;;21.11;47.46;94101.56;5071202;28;20478;-63
2024/01/19 09:49:43;;;;;;;15.20;10.40;;;20.70;85.40;;;20.82;48.44;94111.16;5066949;28;20458;-62
2024/01/19 09:52:24;;;;;;;18.87;12.57;;;20.60;86.50;;;20.43;48.56;94113.97;5067966;28;20489;-63
2024/01/19 09:54:52;;;;;;;24.13;12.20;;;20.30;85.50;;;19.99;48.43;94119.25;5071354;28;20504;-62
2024/01/19 09:57:19;;;;;;;18.43;12.53;;;19.90;83.90;;;19.52;48.86;94102.72;5070667;28;20458;-61
2024/01/19 09:59:46;;;;;;;17.37;12.03;;;19.50;84.00;;;19.12;50.65;94113.56;5070518;28;20455;-62
2024/01/19 10:02:14;;;;;;;19.60;12.57;;;19.10;87.10;;;18.73;50.33;94104.63;5069639;28;20513;-61
2024/01/19 10:04:41;;;;;;;23.13;12.37;;;18.70;86.40;;;18.39;51.47;94103.91;5069820;28;20451;-65
2024/01/19 10:07:08;;;;;;;12.67;8.60;;;18.30;88.40;;;18.14;51.66;94079.75;5070039;28;20474;-62
2024/01/19 10:09:37;;;;;;;12.80;8.40;;;18.10;89.10;;;17.97;51.88;94077.50;5070148;28;20454;-65
2024/01/19 10:12:07;;;;;;;6.40;3.97;;;17.80;88.80;;;17.80;51.59;94074.41;5070595;28;20489;-65
2024/01/19 10:14:34;;;;;;;18.33;10.00;;;17.70;88.20;;;17.70;52.17;94072.13;5070133;28;20542;-60
2024/01/19 10:17:02;;;;;;;10.93;4.50;;;17.60;89.90;;;17.87;51.77;94069.09;5070383;28;20494;-64
2024/01/19 10:19:29;;;;;;;1.90;1.17;;;17.70;89.50;;;18.46;49.74;94070.06;5069996;28;20872;-65
2024/01/19 10:21:56;;;;;;;1.67;1.07;;;18.10;87.50;;;19.20;47.01;94067.19;5069774;28;20490;-65